sensor_id;sensor_type;location;lat;lon;timestamp;pressure;altitude;pressure_sealevel;temperature;humidity
7168;BME280;3625;51.762;14.320;2022-12-07T00:01:46;100406.72;;;3.27;100.00
7168;BME280;3625;51.762;14.320;2022-12-07T00:04:17;100382.25;;;3.11;100.00
7168;BME280;3625;51.762;14.320;2022-12-07T00:06:50;100411.13;;;3.35;100.00
7168;BME280;3625;51.762;14.320;2022-12-07T00:09:19;100414.63;;;3.36;100.00
7168;BME280;3625;51.762;14.320;2022-12-07T00:11:51;100408.50;;;3.34;100.00
7168;BME280;3625;51.762;14.320;2022-12-07T00:14:20;100409.41;;;3.36;100.00
7168;BME280;3625;51.762;14.320;2022-12-07T00:16:50;100380.56;;;3.24;100.00
7168;BME280;3625;51.762;14.320;2022-12-07T00:19:20;100401.56;;;3.40;100.00
7168;BME280;3625;51.762;14.320;2022-12-07T00:21:48;100404.22;;;3.45;100.00
7168;BME280;3625;51.762;14.320;2022-12-07T00:24:17;100395.50;;;3.46;100.00
7168;BME280;3625;51.762;14.320;2022-12-07T00:26:46;100385.91;;;3.48;100.00
7168;BME280;3625;51.762;14.320;2022-12-07T00:29:19;100247.81;;;2.63;100.00
7168;BME280;3625;51.762;14.320;2022-12-07T00:31:48;100383.31;;;3.50;100.00
7168;BME280;3625;51.762;14.320;2022-12-07T00:34:20;100394.66;;;3.52;100.00
7168;BME280;3625;51.762;14.320;2022-12-07T00:36:50;100326.53;;;3.20;100.00
7168;BME280;3625;51.762;14.320;2022-12-07T00:39:19;100375.50;;;3.56;100.00
7168;BME280;3625;51.762;14.320;2022-12-07T00:41:47;100374.63;;;3.58;100.00
7168;BME280;3625;51.762;14.320;2022-12-07T00:44:17;100363.31;;;3.53;100.00
7168;BME280;3625;51.762;14.320;2022-12-07T00:46:46;100366.81;;;3.64;100.00
7168;BME280;3625;51.762;14.320;2022-12-07T00:49:14;100378.19;;;3.68;100.00
7168;BME280;3625;51.762;14.320;2022-12-07T00:51:43;100371.22;;;3.70;100.00
7168;BME280;3625;51.762;14.320;2022-12-07T00:54:11;100379.97;;;3.79;100.00
7168;BME280;3625;51.762;14.320;2022-12-07T00:56:40;100367.72;;;3.69;100.00
7168;BME280;3625;51.762;14.320;2022-12-07T00:59:13;100379.94;;;3.70;100.00
7168;BME280;3625;51.762;14.320;2022-12-07T01:01:43;100235.78;;;2.91;100.00
7168;BME280;3625;51.762;14.320;2022-12-07T01:04:12;100370.31;;;3.65;100.00
7168;BME280;3625;51.762;14.320;2022-12-07T01:06:41;100378.19;;;3.68;100.00
7168;BME280;3625;51.762;14.320;2022-12-07T01:09:09;100379.94;;;3.69;100.00
7168;BME280;3625;51.762;14.320;2022-12-07T01:11:38;100380.78;;;3.68;100.00
7168;BME280;3625;51.762;14.320;2022-12-07T01:14:08;100379.94;;;3.70;100.00
7168;BME280;3625;51.762;14.320;2022-12-07T01:16:38;100388.63;;;3.62;100.00
7168;BME280;3625;51.762;14.320;2022-12-07T01:19:08;100376.41;;;3.59;100.00
7168;BME280;3625;51.762;14.320;2022-12-07T01:21:38;100375.53;;;3.60;100.00
7168;BME280;3625;51.762;14.320;2022-12-07T01:24:10;100376.38;;;3.52;100.00
7168;BME280;3625;51.762;14.320;2022-12-07T01:26:38;100378.06;;;3.45;100.00
7168;BME280;3625;51.762;14.320;2022-12-07T01:29:08;100371.94;;;3.37;100.00
7168;BME280;3625;51.762;14.320;2022-12-07T01:31:37;100374.50;;;3.32;100.00
7168;BME280;3625;51.762;14.320;2022-12-07T01:34:05;100374.53;;;3.35;100.00
7168;BME280;3625;51.762;14.320;2022-12-07T01:36:36;100377.16;;;3.40;100.00
7168;BME280;3625;51.762;14.320;2022-12-07T01:39:06;100295.84;;;2.85;100.00
7168;BME280;3625;51.762;14.320;2022-12-07T01:41:39;100374.50;;;3.28;100.00
7168;BME280;3625;51.762;14.320;2022-12-07T01:44:19;100372.72;;;3.25;100.00
7168;BME280;3625;51.762;14.320;2022-12-07T01:46:50;100378.78;;;3.17;100.00
7168;BME280;3625;51.762;14.320;2022-12-07T01:49:29;100368.28;;;3.12;100.00
7168;BME280;3625;51.762;14.320;2022-12-07T01:52:11;100370.03;;;3.10;100.00
7168;BME280;3625;51.762;14.320;2022-12-07T01:54:43;100319.28;;;2.79;100.00
7168;BME280;3625;51.762;14.320;2022-12-07T01:57:13;100370.00;;;3.12;100.00
7168;BME280;3625;51.762;14.320;2022-12-07T01:59:44;100370.00;;;3.09;100.00
7168;BME280;3625;51.762;14.320;2022-12-07T02:02:20;100363.03;;;3.08;100.00
7168;BME280;3625;51.762;14.320;2022-12-07T02:04:51;100367.41;;;3.12;100.00
7168;BME280;3625;51.762;14.320;2022-12-07T02:07:23;100341.19;;;2.93;100.00
7168;BME280;3625;51.762;14.320;2022-12-07T02:09:53;100359.53;;;3.06;100.00
7168;BME280;3625;51.762;14.320;2022-12-07T02:12:23;100363.00;;;3.04;100.00
7168;BME280;3625;51.762;14.320;2022-12-07T02:14:53;100362.13;;;3.06;100.00
7168;BME280;3625;51.762;14.320;2022-12-07T02:17:34;100324.56;;;2.87;100.00
7168;BME280;3625;51.762;14.320;2022-12-07T02:20:28;100326.38;;;2.94;100.00
7168;BME280;3625;51.762;14.320;2022-12-07T02:23:41;100376.19;;;3.21;100.00
7168;BME280;3625;51.762;14.320;2022-12-07T02:27:07;100304.44;;;2.71;100.00
7168;BME280;3625;51.762;14.320;2022-12-07T02:29:47;100376.81;;;2.88;100.00
7168;BME280;3625;51.762;14.320;2022-12-07T02:32:25;100379.22;;;2.58;100.00
7168;BME280;3625;51.762;14.320;2022-12-07T02:35:03;100356.25;;;2.25;100.00
7168;BME280;3625;51.762;14.320;2022-12-07T02:37:41;100371.09;;;2.27;100.00
7168;BME280;3625;51.762;14.320;2022-12-07T02:40:18;100356.88;;;2.00;100.00
7168;BME280;3625;51.762;14.320;2022-12-07T02:42:55;100362.88;;;1.93;100.00
7168;BME280;3625;51.762;14.320;2022-12-07T02:45:31;100220.19;;;0.99;100.00
7168;BME280;3625;51.762;14.320;2022-12-07T02:48:01;100369.63;;;1.72;100.00
7168;BME280;3625;51.762;14.320;2022-12-07T02:50:30;100366.22;;;1.79;100.00
7168;BME280;3625;51.762;14.320;2022-12-07T02:52:59;100364.28;;;1.62;100.00
7168;BME280;3625;51.762;14.320;2022-12-07T02:55:34;100201.31;;;0.51;100.00
7168;BME280;3625;51.762;14.320;2022-12-07T02:58:21;100320.25;;;1.17;100.00
7168;BME280;3625;51.762;14.320;2022-12-07T03:01:04;100150.53;;;0.15;100.00
7168;BME280;3625;51.762;14.320;2022-12-07T03:03:39;100280.88;;;0.92;100.00
7168;BME280;3625;51.762;14.320;2022-12-07T03:06:16;100359.91;;;1.61;100.00
7168;BME280;3625;51.762;14.320;2022-12-07T03:08:57;100352.03;;;1.56;100.00
7168;BME280;3625;51.762;14.320;2022-12-07T03:11:44;100207.47;;;0.57;100.00
7168;BME280;3625;51.762;14.320;2022-12-07T03:14:21;100273.94;;;0.96;100.00
7168;BME280;3625;51.762;14.320;2022-12-07T03:16:59;100355.16;;;1.28;100.00
7168;BME280;3625;51.762;14.320;2022-12-07T03:19:34;100289.31;;;0.76;100.00
7168;BME280;3625;51.762;14.320;2022-12-07T03:22:07;100351.22;;;0.97;100.00
7168;BME280;3625;51.762;14.320;2022-12-07T03:24:43;100283.59;;;0.44;100.00
7168;BME280;3625;51.762;14.320;2022-12-07T03:27:18;100344.88;;;0.77;100.00
7168;BME280;3625;51.762;14.320;2022-12-07T03:29:54;100345.59;;;0.68;100.00
7168;BME280;3625;51.762;14.320;2022-12-07T03:32:31;100346.34;;;0.59;100.00
7168;BME280;3625;51.762;14.320;2022-12-07T03:35:07;100298.09;;;0.28;100.00
7168;BME280;3625;51.762;14.320;2022-12-07T03:37:41;100334.94;;;0.54;100.00
7168;BME280;3625;51.762;14.320;2022-12-07T03:40:20;100238.00;;;0.12;100.00
7168;BME280;3625;51.762;14.320;2022-12-07T03:42:52;100326.78;;;0.86;100.00
7168;BME280;3625;51.762;14.320;2022-12-07T03:45:31;100321.75;;;0.99;100.00
7168;BME280;3625;51.762;14.320;2022-12-07T03:48:10;100224.81;;;0.55;100.00
7168;BME280;3625;51.762;14.320;2022-12-07T03:50:52;100257.44;;;0.92;100.00
7168;BME280;3625;51.762;14.320;2022-12-07T03:53:31;100298.75;;;1.33;100.00
7168;BME280;3625;51.762;14.320;2022-12-07T03:56:03;100133.44;;;0.35;100.00
7168;BME280;3625;51.762;14.320;2022-12-07T03:58:33;100221.09;;;1.01;100.00
7168;BME280;3625;51.762;14.320;2022-12-07T04:01:02;100293.78;;;1.52;100.00
7168;BME280;3625;51.762;14.320;2022-12-07T04:03:32;100190.63;;;0.96;100.00
7168;BME280;3625;51.762;14.320;2022-12-07T04:06:01;100287.75;;;1.55;100.00
7168;BME280;3625;51.762;14.320;2022-12-07T04:08:30;100281.63;;;1.56;100.00
7168;BME280;3625;51.762;14.320;2022-12-07T04:10:58;100276.44;;;1.55;100.00
7168;BME280;3625;51.762;14.320;2022-12-07T04:13:27;100276.44;;;1.55;100.00
7168;BME280;3625;51.762;14.320;2022-12-07T04:15:56;100267.72;;;1.52;100.00
7168;BME280;3625;51.762;14.320;2022-12-07T04:18:24;100265.97;;;1.53;100.00
7168;BME280;3625;51.762;14.320;2022-12-07T04:20:54;100263.31;;;1.47;100.00
7168;BME280;3625;51.762;14.320;2022-12-07T04:23:23;100255.38;;;1.36;100.00
7168;BME280;3625;51.762;14.320;2022-12-07T04:25:51;100251.88;;;1.36;100.00
7168;BME280;3625;51.762;14.320;2022-12-07T04:28:20;100245.81;;;1.37;100.00
7168;BME280;3625;51.762;14.320;2022-12-07T04:30:48;100248.38;;;1.34;100.00
7168;BME280;3625;51.762;14.320;2022-12-07T04:33:17;100251.81;;;1.31;100.00
7168;BME280;3625;51.762;14.320;2022-12-07T04:35:46;100251.81;;;1.31;100.00
7168;BME280;3625;51.762;14.320;2022-12-07T04:38:16;100248.34;;;1.29;100.00
7168;BME280;3625;51.762;14.320;2022-12-07T04:40:45;100245.75;;;1.29;100.00
7168;BME280;3625;51.762;14.320;2022-12-07T04:43:13;100243.13;;;1.29;100.00
7168;BME280;3625;51.762;14.320;2022-12-07T04:45:46;100243.09;;;1.26;100.00
7168;BME280;3625;51.762;14.320;2022-12-07T04:48:15;100242.19;;;1.24;100.00
7168;BME280;3625;51.762;14.320;2022-12-07T04:50:44;100238.69;;;1.21;100.00
7168;BME280;3625;51.762;14.320;2022-12-07T04:53:16;100236.06;;;1.19;100.00
7168;BME280;3625;51.762;14.320;2022-12-07T04:55:45;100236.00;;;1.16;100.00
7168;BME280;3625;51.762;14.320;2022-12-07T04:58:14;100231.63;;;1.12;100.00
7168;BME280;3625;51.762;14.320;2022-12-07T05:00:43;100235.06;;;1.09;100.00
7168;BME280;3625;51.762;14.320;2022-12-07T05:03:12;100225.53;;;1.13;100.00
7168;BME280;3625;51.762;14.320;2022-12-07T05:05:41;100229.13;;;1.20;100.00
7168;BME280;3625;51.762;14.320;2022-12-07T05:08:09;100227.41;;;1.20;100.00
7168;BME280;3625;51.762;14.320;2022-12-07T05:10:39;100225.69;;;1.24;100.00
7168;BME280;3625;51.762;14.320;2022-12-07T05:13:08;100217.06;;;1.28;100.00
7168;BME280;3625;51.762;14.320;2022-12-07T05:15:36;100217.94;;;1.31;100.00
7168;BME280;3625;51.762;14.320;2022-12-07T05:18:05;100224.97;;;1.37;100.00
7168;BME280;3625;51.762;14.320;2022-12-07T05:20:34;100216.38;;;1.45;100.00
7168;BME280;3625;51.762;14.320;2022-12-07T05:23:09;100216.47;;;1.53;100.00
7168;BME280;3625;51.762;14.320;2022-12-07T05:25:39;100216.53;;;1.61;100.00
7168;BME280;3625;51.762;14.320;2022-12-07T05:28:08;100211.34;;;1.65;100.00
7168;BME280;3625;51.762;14.320;2022-12-07T05:30:36;100219.19;;;1.67;100.00
7168;BME280;3625;51.762;14.320;2022-12-07T05:33:05;100206.22;;;1.71;100.00
7168;BME280;3625;51.762;14.320;2022-12-07T05:35:34;100205.38;;;1.77;100.00
7168;BME280;3625;51.762;14.320;2022-12-07T05:38:02;100195.88;;;1.80;100.00
7168;BME280;3625;51.762;14.320;2022-12-07T05:40:31;100191.53;;;1.84;100.00
7168;BME280;3625;51.762;14.320;2022-12-07T05:43:01;100154.88;;;1.66;100.00
7168;BME280;3625;51.762;14.320;2022-12-07T05:45:31;100187.19;;;1.84;100.00
7168;BME280;3625;51.762;14.320;2022-12-07T05:48:00;100195.94;;;1.89;100.00
7168;BME280;3625;51.762;14.320;2022-12-07T05:50:28;100195.94;;;1.91;100.00
7168;BME280;3625;51.762;14.320;2022-12-07T05:53:00;100191.59;;;1.93;100.00
7168;BME280;3625;51.762;14.320;2022-12-07T05:55:28;100189.91;;;1.97;100.00
7168;BME280;3625;51.762;14.320;2022-12-07T05:57:57;100188.19;;;2.00;100.00
7168;BME280;3625;51.762;14.320;2022-12-07T06:00:44;100182.16;;;2.06;100.00
7168;BME280;3625;51.762;14.320;2022-12-07T06:03:17;100182.16;;;2.09;100.00
7168;BME280;3625;51.762;14.320;2022-12-07T06:05:46;100176.13;;;2.13;100.00
7168;BME280;3625;51.762;14.320;2022-12-07T06:08:15;100180.50;;;2.18;100.00
7168;BME280;3625;51.762;14.320;2022-12-07T06:10:44;100171.84;;;2.22;100.00
7168;BME280;3625;51.762;14.320;2022-12-07T06:13:34;100164.03;;;2.27;100.00
7168;BME280;3625;51.762;14.320;2022-12-07T06:16:04;100171.03;;;2.31;100.00
7168;BME280;3625;51.762;14.320;2022-12-07T06:18:33;100169.28;;;2.32;100.00
7168;BME280;3625;51.762;14.320;2022-12-07T06:21:02;100156.25;;;2.35;100.00
7168;BME280;3625;51.762;14.320;2022-12-07T06:23:30;100169.31;;;2.36;100.00
7168;BME280;3625;51.762;14.320;2022-12-07T06:25:59;100164.97;;;2.38;100.00
7168;BME280;3625;51.762;14.320;2022-12-07T06:28:27;100161.53;;;2.44;100.00
7168;BME280;3625;51.762;14.320;2022-12-07T06:30:57;100161.56;;;2.48;100.00
7168;BME280;3625;51.762;14.320;2022-12-07T06:33:28;100144.97;;;2.39;100.00
7168;BME280;3625;51.762;14.320;2022-12-07T06:35:57;100162.44;;;2.50;100.00
7168;BME280;3625;51.762;14.320;2022-12-07T06:38:25;100163.28;;;2.51;100.00
7168;BME280;3625;51.762;14.320;2022-12-07T06:40:54;100158.06;;;2.51;100.00
7168;BME280;3625;51.762;14.320;2022-12-07T06:43:22;100162.44;;;2.49;100.00
7168;BME280;3625;51.762;14.320;2022-12-07T06:45:51;100162.44;;;2.49;100.00
7168;BME280;3625;51.762;14.320;2022-12-07T06:48:20;100160.69;;;2.48;100.00
7168;BME280;3625;51.762;14.320;2022-12-07T06:50:50;100124.91;;;2.28;100.00
7168;BME280;3625;51.762;14.320;2022-12-07T06:53:22;100153.69;;;2.44;100.00
7168;BME280;3625;51.762;14.320;2022-12-07T06:55:51;100151.06;;;2.39;100.00
7168;BME280;3625;51.762;14.320;2022-12-07T06:58:19;100156.28;;;2.39;100.00
7168;BME280;3625;51.762;14.320;2022-12-07T07:00:48;100147.59;;;2.40;100.00
7168;BME280;3625;51.762;14.320;2022-12-07T07:03:17;100151.06;;;2.39;100.00
7168;BME280;3625;51.762;14.320;2022-12-07T07:05:46;100149.31;;;2.38;100.00
7168;BME280;3625;51.762;14.320;2022-12-07T07:08:16;100152.81;;;2.40;100.00
7168;BME280;3625;51.762;14.320;2022-12-07T07:10:49;100142.34;;;2.36;100.00
7168;BME280;3625;51.762;14.320;2022-12-07T07:13:18;100156.19;;;2.27;100.00
7168;BME280;3625;51.762;14.320;2022-12-07T07:15:46;100149.25;;;2.29;100.00
7168;BME280;3625;51.762;14.320;2022-12-07T07:18:15;100147.53;;;2.34;100.00
7168;BME280;3625;51.762;14.320;2022-12-07T07:20:44;100150.19;;;2.37;100.00
7168;BME280;3625;51.762;14.320;2022-12-07T07:23:12;100161.50;;;2.39;100.00
7168;BME280;3625;51.762;14.320;2022-12-07T07:25:42;100153.72;;;2.48;100.00
7168;BME280;3625;51.762;14.320;2022-12-07T07:28:11;100150.25;;;2.51;100.00
7168;BME280;3625;51.762;14.320;2022-12-07T07:30:39;100152.00;;;2.55;100.00
7168;BME280;3625;51.762;14.320;2022-12-07T07:33:10;100125.84;;;2.46;100.00
7168;BME280;3625;51.762;14.320;2022-12-07T07:35:39;100147.69;;;2.63;100.00
7168;BME280;3625;51.762;14.320;2022-12-07T07:38:08;100134.63;;;2.57;100.00
7168;BME280;3625;51.762;14.320;2022-12-07T07:40:37;100137.25;;;2.63;100.00
7168;BME280;3625;51.762;14.320;2022-12-07T07:43:06;100139.03;;;2.73;100.00
7168;BME280;3625;51.762;14.320;2022-12-07T07:45:35;100132.97;;;2.76;100.00
7168;BME280;3625;51.762;14.320;2022-12-07T07:48:04;100138.19;;;2.80;100.00
7168;BME280;3625;51.762;14.320;2022-12-07T07:50:33;100128.63;;;2.81;100.00
7168;BME280;3625;51.762;14.320;2022-12-07T07:53:01;100133.88;;;2.82;100.00
7168;BME280;3625;51.762;14.320;2022-12-07T07:55:30;100125.16;;;2.83;100.00
7168;BME280;3625;51.762;14.320;2022-12-07T07:57:58;100135.63;;;2.88;100.00
7168;BME280;3625;51.762;14.320;2022-12-07T08:00:28;100132.16;;;2.92;100.00
7168;BME280;3625;51.762;14.320;2022-12-07T08:02:57;100130.44;;;2.98;100.00
7168;BME280;3625;51.762;14.320;2022-12-07T08:05:26;100136.56;;;3.02;100.00
7168;BME280;3625;51.762;14.320;2022-12-07T08:07:55;100136.53;;;3.07;100.00
7168;BME280;3625;51.762;14.320;2022-12-07T08:10:23;100147.84;;;2.98;100.00
7168;BME280;3625;51.762;14.320;2022-12-07T08:12:52;100144.38;;;3.03;100.00
7168;BME280;3625;51.762;14.320;2022-12-07T08:15:42;100101.63;;;2.80;100.00
7168;BME280;3625;51.762;14.320;2022-12-07T08:18:12;100133.97;;;3.16;100.00
7168;BME280;3625;51.762;14.320;2022-12-07T08:20:41;100140.06;;;3.21;100.00
7168;BME280;3625;51.762;14.320;2022-12-07T08:23:10;100134.88;;;3.27;100.00
7168;BME280;3625;51.762;14.320;2022-12-07T08:25:39;100131.38;;;3.28;100.00
7168;BME280;3625;51.762;14.320;2022-12-07T08:28:08;100137.50;;;3.36;100.00
7168;BME280;3625;51.762;14.320;2022-12-07T08:30:37;100134.00;;;3.35;100.00
7168;BME280;3625;51.762;14.320;2022-12-07T08:33:06;100137.50;;;3.36;100.00
7168;BME280;3625;51.762;14.320;2022-12-07T08:35:35;100072.09;;;2.99;100.00
7168;BME280;3625;51.762;14.320;2022-12-07T08:38:04;100138.34;;;3.38;100.00
7168;BME280;3625;51.762;14.320;2022-12-07T08:40:32;100138.34;;;3.38;100.00
7168;BME280;3625;51.762;14.320;2022-12-07T08:43:01;100142.72;;;3.40;100.00
7168;BME280;3625;51.762;14.320;2022-12-07T08:45:30;100136.66;;;3.52;100.00
7168;BME280;3625;51.762;14.320;2022-12-07T08:48:07;100100.88;;;3.40;100.00
7168;BME280;3625;51.762;14.320;2022-12-07T08:50:38;100131.44;;;3.63;100.00
7168;BME280;3625;51.762;14.320;2022-12-07T08:53:15;100135.78;;;3.79;100.00
7168;BME280;3625;51.762;14.320;2022-12-07T08:55:46;100134.03;;;3.87;100.00
7168;BME280;3625;51.762;14.320;2022-12-07T08:58:15;100138.38;;;3.90;100.00
7168;BME280;3625;51.762;14.320;2022-12-07T09:00:43;100136.66;;;3.86;100.00
7168;BME280;3625;51.762;14.320;2022-12-07T09:03:13;100116.59;;;3.80;100.00
7168;BME280;3625;51.762;14.320;2022-12-07T09:05:42;100138.41;;;3.87;100.00
7168;BME280;3625;51.762;14.320;2022-12-07T09:08:11;100133.16;;;3.79;100.00
7168;BME280;3625;51.762;14.320;2022-12-07T09:10:40;100127.94;;;3.85;100.00
7168;BME280;3625;51.762;14.320;2022-12-07T09:13:09;100134.03;;;3.93;100.00
7168;BME280;3625;51.762;14.320;2022-12-07T09:15:37;100141.00;;;4.05;100.00
7168;BME280;3625;51.762;14.320;2022-12-07T09:18:06;100134.00;;;4.21;100.00
7168;BME280;3625;51.762;14.320;2022-12-07T09:20:36;100101.72;;;4.23;100.00
7168;BME280;3625;51.762;14.320;2022-12-07T09:23:05;100051.16;;;4.06;100.00
7168;BME280;3625;51.762;14.320;2022-12-07T09:25:34;100134.81;;;4.45;100.00
7168;BME280;3625;51.762;14.320;2022-12-07T09:28:03;100133.09;;;4.40;100.00
7168;BME280;3625;51.762;14.320;2022-12-07T09:30:32;100132.22;;;4.39;100.00
7168;BME280;3625;51.762;14.320;2022-12-07T09:33:21;100136.56;;;4.42;100.00
7168;BME280;3625;51.762;14.320;2022-12-07T09:35:52;100131.31;;;4.48;100.00
7168;BME280;3625;51.762;14.320;2022-12-07T09:38:20;100132.16;;;4.51;100.00
7168;BME280;3625;51.762;14.320;2022-12-07T09:40:49;100133.06;;;4.46;100.00
7168;BME280;3625;51.762;14.320;2022-12-07T09:43:22;100053.72;;;4.20;100.00
7168;BME280;3625;51.762;14.320;2022-12-07T09:45:52;100113.78;;;4.64;100.00
7168;BME280;3625;51.762;14.320;2022-12-07T09:48:27;100119.00;;;4.70;100.00
7168;BME280;3625;51.762;14.320;2022-12-07T09:51:01;100116.41;;;4.67;100.00
7168;BME280;3625;51.762;14.320;2022-12-07T09:53:33;100112.00;;;4.75;100.00
7168;BME280;3625;51.762;14.320;2022-12-07T09:56:05;100111.16;;;4.73;100.00
7168;BME280;3625;51.762;14.320;2022-12-07T09:58:34;100118.88;;;4.96;100.00
7168;BME280;3625;51.762;14.320;2022-12-07T10:01:12;100087.44;;;5.00;100.00
7168;BME280;3625;51.762;14.320;2022-12-07T10:03:49;100117.84;;;5.25;100.00
7168;BME280;3625;51.762;14.320;2022-12-07T10:06:20;100053.41;;;4.85;100.00
7168;BME280;3625;51.762;14.320;2022-12-07T10:08:49;100121.31;;;5.29;100.00
7168;BME280;3625;51.762;14.320;2022-12-07T10:11:18;100119.66;;;5.19;100.00
7168;BME280;3625;51.762;14.320;2022-12-07T10:13:48;100125.78;;;5.12;100.00
7168;BME280;3625;51.762;14.320;2022-12-07T10:16:40;100092.66;;;5.00;100.00
7168;BME280;3625;51.762;14.320;2022-12-07T10:19:24;100095.25;;;5.03;100.00
7168;BME280;3625;51.762;14.320;2022-12-07T10:22:10;100112.63;;;5.21;100.00
7168;BME280;3625;51.762;14.320;2022-12-07T10:24:39;100117.09;;;5.10;100.00
7168;BME280;3625;51.762;14.320;2022-12-07T10:27:20;100089.19;;;4.95;100.00
7168;BME280;3625;51.762;14.320;2022-12-07T10:29:51;100112.63;;;5.24;100.00
7168;BME280;3625;51.762;14.320;2022-12-07T10:32:34;100090.91;;;4.99;100.00
7168;BME280;3625;51.762;14.320;2022-12-07T10:35:22;100036.91;;;4.74;100.00
7168;BME280;3625;51.762;14.320;2022-12-07T10:37:55;100117.91;;;5.18;100.00
7168;BME280;3625;51.762;14.320;2022-12-07T10:40:31;100097.09;;;4.89;100.00
7168;BME280;3625;51.762;14.320;2022-12-07T10:43:04;100122.38;;;4.93;100.00
7168;BME280;3625;51.762;14.320;2022-12-07T10:45:35;100123.25;;;4.93;100.00
7168;BME280;3625;51.762;14.320;2022-12-07T10:48:38;100120.59;;;5.04;100.00
7168;BME280;3625;51.762;14.320;2022-12-07T10:51:20;100072.75;;;4.61;100.00
7168;BME280;3625;51.762;14.320;2022-12-07T10:54:04;100127.66;;;4.90;100.00
7168;BME280;3625;51.762;14.320;2022-12-07T10:57:14;100120.69;;;4.84;100.00
7168;BME280;3625;51.762;14.320;2022-12-07T11:00:08;100090.22;;;4.67;100.00
7168;BME280;3625;51.762;14.320;2022-12-07T11:02:59;100100.66;;;4.73;100.00
7168;BME280;3625;51.762;14.320;2022-12-07T11:05:39;100118.00;;;4.97;100.00
7168;BME280;3625;51.762;14.320;2022-12-07T11:08:33;100112.81;;;4.90;100.00
7168;BME280;3625;51.762;14.320;2022-12-07T11:11:14;99967.31;;;4.21;100.00
7168;BME280;3625;51.762;14.320;2022-12-07T11:13:52;100117.03;;;5.17;100.00
7168;BME280;3625;51.762;14.320;2022-12-07T11:16:37;99991.59;;;4.50;100.00
7168;BME280;3625;51.762;14.320;2022-12-07T11:19:28;100114.31;;;5.31;100.00
7168;BME280;3625;51.762;14.320;2022-12-07T11:22:06;100089.94;;;5.15;100.00
7168;BME280;3625;51.762;14.320;2022-12-07T11:24:47;100119.50;;;5.40;100.00
7168;BME280;3625;51.762;14.320;2022-12-07T11:27:29;100122.19;;;5.32;100.00
7168;BME280;3625;51.762;14.320;2022-12-07T11:30:14;100062.19;;;4.82;100.00
7168;BME280;3625;51.762;14.320;2022-12-07T11:33:08;100110.91;;;5.15;100.00
7168;BME280;3625;51.762;14.320;2022-12-07T11:35:54;100093.50;;;5.04;100.00
7168;BME280;3625;51.762;14.320;2022-12-07T11:38:37;100046.44;;;4.87;100.00
7168;BME280;3625;51.762;14.320;2022-12-07T11:41:11;100128.31;;;5.30;100.00
7168;BME280;3625;51.762;14.320;2022-12-07T11:43:57;100131.81;;;5.30;100.00
7168;BME280;3625;51.762;14.320;2022-12-07T11:46:40;100076.13;;;4.89;100.00
7168;BME280;3625;51.762;14.320;2022-12-07T11:49:19;100096.13;;;5.02;100.00
7168;BME280;3625;51.762;14.320;2022-12-07T11:51:54;100080.44;;;4.93;100.00
7168;BME280;3625;51.762;14.320;2022-12-07T11:54:32;100109.19;;;5.13;100.00
7168;BME280;3625;51.762;14.320;2022-12-07T11:57:10;100138.78;;;5.30;100.00
7168;BME280;3625;51.762;14.320;2022-12-07T11:59:52;100066.47;;;4.94;100.00
7168;BME280;3625;51.762;14.320;2022-12-07T12:02:28;100128.34;;;5.21;100.00
7168;BME280;3625;51.762;14.320;2022-12-07T12:05:13;100124.03;;;5.14;100.00
7168;BME280;3625;51.762;14.320;2022-12-07T12:07:44;100124.00;;;5.20;100.00
7168;BME280;3625;51.762;14.320;2022-12-07T12:10:52;100003.81;;;4.51;100.00
7168;BME280;3625;51.762;14.320;2022-12-07T12:17:40;100088.25;;;5.10;100.00
7168;BME280;3625;51.762;14.320;2022-12-07T12:20:23;100132.66;;;5.34;100.00
7168;BME280;3625;51.762;14.320;2022-12-07T12:23:01;100008.09;;;4.68;100.00
7168;BME280;3625;51.762;14.320;2022-12-07T12:25:40;100129.09;;;5.44;100.00
7168;BME280;3625;51.762;14.320;2022-12-07T12:28:24;100128.19;;;5.47;100.00
7168;BME280;3625;51.762;14.320;2022-12-07T12:31:12;100101.19;;;5.34;100.00
7168;BME280;3625;51.762;14.320;2022-12-07T12:33:46;100139.56;;;5.46;100.00
7168;BME280;3625;51.762;14.320;2022-12-07T12:36:24;99992.38;;;4.69;100.00
7168;BME280;3625;51.762;14.320;2022-12-07T12:39:11;100117.69;;;5.47;100.00
7168;BME280;3625;51.762;14.320;2022-12-07T12:42:00;100128.25;;;5.38;100.00
7168;BME280;3625;51.762;14.320;2022-12-07T12:45:21;100118.69;;;5.30;100.00
7168;BME280;3625;51.762;14.320;2022-12-07T12:47:57;100127.41;;;5.36;100.00
7168;BME280;3625;51.762;14.320;2022-12-07T12:50:31;100083.78;;;5.24;100.00
7168;BME280;3625;51.762;14.320;2022-12-07T12:53:22;100123.06;;;5.33;100.00
7168;BME280;3625;51.762;14.320;2022-12-07T12:56:35;100110.00;;;5.24;100.00
7168;BME280;3625;51.762;14.320;2022-12-07T12:59:25;100116.94;;;5.29;100.00
7168;BME280;3625;51.762;14.320;2022-12-07T13:02:06;100128.28;;;5.36;100.00
7168;BME280;3625;51.762;14.320;2022-12-07T13:05:00;100116.88;;;5.39;100.00
7168;BME280;3625;51.762;14.320;2022-12-07T13:07:59;100115.19;;;5.31;100.00
7168;BME280;3625;51.762;14.320;2022-12-07T13:10:42;100107.41;;;5.18;100.00
7168;BME280;3625;51.762;14.320;2022-12-07T13:13:33;100123.97;;;5.27;100.00
7168;BME280;3625;51.762;14.320;2022-12-07T13:16:39;100123.06;;;5.35;100.00
7168;BME280;3625;51.762;14.320;2022-12-07T13:22:46;100120.44;;;5.28;100.00
7168;BME280;3625;51.762;14.320;2022-12-07T13:25:35;100114.31;;;5.34;100.00
7168;BME280;3625;51.762;14.320;2022-12-07T13:28:15;100121.31;;;5.29;100.00
7168;BME280;3625;51.762;14.320;2022-12-07T13:31:09;100121.34;;;5.24;100.00
7168;BME280;3625;51.762;14.320;2022-12-07T13:33:44;100111.69;;;5.28;100.00
7168;BME280;3625;51.762;14.320;2022-12-07T13:36:21;100088.16;;;5.22;100.00
7168;BME280;3625;51.762;14.320;2022-12-07T13:38:55;100038.56;;;4.87;100.00
7168;BME280;3625;51.762;14.320;2022-12-07T13:41:27;100105.69;;;5.18;100.00
7168;BME280;3625;51.762;14.320;2022-12-07T13:44:03;100107.41;;;5.16;100.00
7168;BME280;3625;51.762;14.320;2022-12-07T13:46:46;100103.94;;;5.19;100.00